Time;durP1;ratioP1;P1;durP2;ratioP2;P2;SDS_P1;SDS_P2;PMS_P1;PMS_P2;Temp;Humidity;BMP_temperature;BMP_pressure;BME280_temperature;BME280_humidity;BME280_pressure;Samples;Min_cycle;Max_cycle;Signal;HPM_P1;HPM_P2
2023/05/13 00:01:37;;;;;;;4.05;3.42;;;16.20;63.80;;;;;;5075628;28;20037;-70
2023/05/13 00:04:07;;;;;;;4.25;3.20;;;16.10;63.70;;;;;;5077599;28;20099;-70
2023/05/13 00:06:33;;;;;;;4.00;3.30;;;16.10;63.70;;;;;;5076856;28;20036;-68
2023/05/13 00:08:59;;;;;;;4.32;3.45;;;16.10;63.60;;;;;;5074818;28;20017;-70
2023/05/13 00:11:25;;;;;;;4.40;3.47;;;16.00;63.60;;;;;;5077433;28;20398;-68
2023/05/13 00:13:51;;;;;;;4.10;3.25;;;16.00;63.60;;;;;;5071973;28;20024;-69
2023/05/13 00:16:16;;;;;;;4.80;3.45;;;16.00;63.70;;;;;;5075853;28;20442;-70
2023/05/13 00:18:42;;;;;;;4.97;3.58;;;15.90;63.60;;;;;;5066823;28;20770;-69
2023/05/13 00:21:07;;;;;;;4.90;3.50;;;15.90;63.50;;;;;;5071173;28;20028;-71
2023/05/13 00:23:36;;;;;;;4.38;3.58;;;15.80;63.50;;;;;;5072284;28;20060;-69
2023/05/13 00:26:02;;;;;;;5.30;3.60;;;15.80;63.50;;;;;;5072496;28;20024;-71
2023/05/13 00:28:27;;;;;;;5.82;3.50;;;15.80;64.10;;;;;;5069589;28;20028;-69
2023/05/13 00:30:53;;;;;;;5.78;3.70;;;15.80;63.50;;;;;;5071568;28;20025;-69
2023/05/13 00:33:18;;;;;;;8.38;3.53;;;15.80;63.50;;;;;;5073155;28;20029;-70
2023/05/13 00:35:44;;;;;;;5.38;3.63;;;15.70;63.50;;;;;;5069746;28;20013;-69
2023/05/13 00:38:10;;;;;;;5.15;3.72;;;15.70;63.60;;;;;;5072887;28;20025;-68
2023/05/13 00:40:38;;;;;;;4.38;3.95;;;15.70;63.70;;;;;;5071086;28;20040;-70
2023/05/13 00:43:05;;;;;;;4.03;3.40;;;15.60;63.60;;;;;;5072144;28;20086;-70
2023/05/13 00:45:30;;;;;;;6.20;3.85;;;15.60;63.70;;;;;;5070119;28;20116;-69
2023/05/13 00:47:57;;;;;;;5.32;3.80;;;15.50;63.60;;;;;;5067444;28;20115;-68
2023/05/13 00:50:22;;;;;;;6.20;3.90;;;15.50;63.60;;;;;;5070970;28;20017;-69
2023/05/13 00:52:50;;;;;;;5.10;3.95;;;15.40;63.70;;;;;;5072847;28;20020;-70
2023/05/13 00:55:16;;;;;;;5.03;3.72;;;15.50;63.70;;;;;;5071902;28;20506;-71
2023/05/13 00:57:42;;;;;;;4.88;3.50;;;15.50;63.80;;;;;;5074052;28;20475;-71
2023/05/13 01:00:09;;;;;;;5.72;3.55;;;15.40;63.80;;;;;;5068723;28;20182;-70
2023/05/13 01:02:44;;;;;;;4.63;3.40;;;15.40;63.90;;;;;;5072044;28;20021;-70
2023/05/13 01:05:21;;;;;;;4.15;3.63;;;15.40;63.90;;;;;;5074441;28;20127;-70
2023/05/13 01:08:11;;;;;;;4.25;3.33;;;15.30;64.00;;;;;;5069639;28;20055;-71
2023/05/13 01:10:48;;;;;;;4.15;3.70;;;15.30;64.10;;;;;;5071712;28;20029;-70
2023/05/13 01:13:22;;;;;;;5.75;4.00;;;15.30;64.30;;;;;;5084600;28;20030;-69
2023/05/13 01:15:59;;;;;;;5.25;3.92;;;15.30;64.40;;;;;;5070833;28;20405;-70
2023/05/13 01:18:32;;;;;;;5.40;3.88;;;15.20;64.40;;;;;;5082099;28;20478;-69
2023/05/13 01:21:00;;;;;;;4.78;4.13;;;15.20;64.40;;;;;;5085769;28;20774;-69
2023/05/13 01:23:25;;;;;;;4.65;3.90;;;15.20;64.50;;;;;;5057110;28;20588;-69
2023/05/13 01:25:51;;;;;;;5.30;3.85;;;15.20;64.60;;;;;;5071402;28;20060;-70
2023/05/13 01:28:17;;;;;;;4.15;3.75;;;15.10;64.60;;;;;;5071567;28;20028;-71
2023/05/13 01:30:43;;;;;;;4.82;3.75;;;15.10;64.60;;;;;;5075473;28;20551;-71
2023/05/13 01:33:09;;;;;;;4.85;3.70;;;15.10;64.70;;;;;;5078867;28;20020;-69
2023/05/13 01:35:35;;;;;;;4.28;3.70;;;15.10;64.70;;;;;;5079624;28;20525;-69
2023/05/13 01:38:02;;;;;;;6.15;3.90;;;15.00;64.80;;;;;;5077033;28;20024;-69
2023/05/13 01:40:28;;;;;;;4.82;4.00;;;15.00;64.80;;;;;;5079406;28;20386;-69
2023/05/13 01:42:54;;;;;;;5.43;4.05;;;15.00;64.90;;;;;;5082647;28;20021;-70
2023/05/13 01:45:20;;;;;;;5.50;4.55;;;15.00;64.90;;;;;;5072195;28;20028;-67
2023/05/13 01:47:45;;;;;;;5.45;4.43;;;15.00;65.00;;;;;;5090854;28;20573;-68
2023/05/13 01:50:11;;;;;;;6.60;4.07;;;14.90;65.00;;;;;;5079959;28;20031;-69
2023/05/13 01:52:36;;;;;;;5.38;3.67;;;14.90;65.20;;;;;;5072130;28;20483;-69
2023/05/13 01:55:02;;;;;;;6.20;4.32;;;14.80;65.20;;;;;;5080457;28;20391;-69
2023/05/13 01:57:27;;;;;;;6.40;4.40;;;14.80;65.40;;;;;;5082057;28;20046;-71
2023/05/13 01:59:53;;;;;;;5.20;3.70;;;14.80;65.50;;;;;;5081959;28;20089;-71
2023/05/13 02:02:18;;;;;;;4.45;3.47;;;14.70;65.60;;;;;;5079861;28;20046;-71
2023/05/13 02:04:44;;;;;;;4.88;3.78;;;14.70;65.60;;;;;;5069444;28;20021;-67
2023/05/13 02:07:10;;;;;;;5.07;4.20;;;14.70;65.70;;;;;;5084321;28;20134;-70
2023/05/13 02:09:35;;;;;;;5.93;4.88;;;14.70;65.80;;;;;;5082174;28;20016;-70
2023/05/13 02:12:01;;;;;;;5.97;4.35;;;14.70;65.90;;;;;;5082158;28;20461;-69
2023/05/13 02:14:26;;;;;;;4.88;3.88;;;14.70;66.00;;;;;;5070482;28;20032;-67
2023/05/13 02:16:52;;;;;;;5.57;4.22;;;14.60;66.00;;;;;;5072322;28;20044;-70
2023/05/13 02:19:18;;;;;;;5.53;3.97;;;14.60;66.10;;;;;;5072023;28;20036;-70
2023/05/13 02:21:44;;;;;;;4.93;4.13;;;14.50;66.20;;;;;;5077936;28;20020;-67
2023/05/13 02:24:10;;;;;;;5.40;4.20;;;14.50;66.30;;;;;;5070735;28;20028;-69
2023/05/13 02:26:35;;;;;;;5.63;4.47;;;14.50;66.30;;;;;;5069914;28;20153;-70
2023/05/13 02:29:01;;;;;;;6.22;3.97;;;14.50;66.60;;;;;;5065799;28;20029;-68
2023/05/13 02:31:27;;;;;;;7.93;4.65;;;14.40;66.60;;;;;;5078474;28;20113;-69
2023/05/13 02:33:53;;;;;;;6.03;4.00;;;14.40;66.70;;;;;;5076144;28;20643;-70
2023/05/13 02:36:18;;;;;;;5.95;4.63;;;14.40;66.80;;;;;;5074164;28;20028;-69
2023/05/13 02:38:44;;;;;;;7.15;4.50;;;14.40;67.00;;;;;;5081610;28;20024;-69
2023/05/13 02:41:09;;;;;;;4.68;4.00;;;14.40;67.10;;;;;;5074427;28;20037;-69
2023/05/13 02:43:35;;;;;;;4.78;3.95;;;14.30;67.10;;;;;;5080441;28;20020;-70
2023/05/13 02:46:02;;;;;;;5.20;4.13;;;14.30;67.20;;;;;;5073493;28;20035;-69
2023/05/13 02:48:28;;;;;;;6.30;4.53;;;14.30;67.30;;;;;;5080925;28;20024;-70
2023/05/13 02:50:53;;;;;;;10.50;5.18;;;14.20;67.50;;;;;;5081422;28;20031;-69
2023/05/13 02:53:19;;;;;;;5.70;4.15;;;14.20;67.60;;;;;;5070230;28;20037;-70
2023/05/13 02:55:44;;;;;;;6.30;4.60;;;14.20;67.80;;;;;;5074988;28;20027;-69
2023/05/13 02:58:10;;;;;;;4.85;4.30;;;14.10;67.90;;;;;;5079350;28;20680;-70
2023/05/13 03:00:35;;;;;;;7.30;4.20;;;14.10;68.10;;;;;;5074461;28;20490;-70
2023/05/13 03:03:01;;;;;;;6.00;4.88;;;14.10;68.20;;;;;;5077059;28;20402;-70
2023/05/13 03:05:27;;;;;;;5.45;4.63;;;14.00;68.30;;;;;;5081408;28;20146;-69
2023/05/13 03:07:52;;;;;;;5.10;4.60;;;14.00;68.50;;;;;;5080963;28;20028;-70
2023/05/13 03:10:18;;;;;;;5.63;4.70;;;14.00;68.70;;;;;;5086465;28;20028;-70
2023/05/13 03:12:43;;;;;;;6.03;4.60;;;13.90;68.70;;;;;;5075366;28;20020;-70
2023/05/13 03:15:09;;;;;;;6.43;4.78;;;13.90;68.90;;;;;;5070745;28;20021;-70
2023/05/13 03:17:35;;;;;;;6.03;4.93;;;13.90;69.10;;;;;;5072451;28;20020;-69
2023/05/13 03:20:01;;;;;;;6.80;5.18;;;13.80;69.20;;;;;;5081576;28;20016;-70
2023/05/13 03:22:26;;;;;;;7.18;6.20;;;13.80;69.40;;;;;;5070331;28;20037;-69
2023/05/13 03:24:52;;;;;;;8.50;5.72;;;13.70;70.00;;;;;;5069946;28;20028;-70
2023/05/13 03:27:18;;;;;;;5.55;4.85;;;13.70;70.00;;;;;;5068204;28;20032;-71
2023/05/13 03:29:43;;;;;;;6.70;4.88;;;13.70;70.00;;;;;;5075978;28;20055;-71
2023/05/13 03:32:09;;;;;;;6.47;5.40;;;13.70;70.00;;;;;;5079923;28;20024;-69
2023/05/13 03:34:36;;;;;;;7.63;5.75;;;13.70;70.10;;;;;;5084116;28;20074;-70
2023/05/13 03:37:01;;;;;;;6.75;5.05;;;13.60;70.30;;;;;;5073793;28;20047;-71
2023/05/13 03:39:27;;;;;;;6.30;5.35;;;13.60;70.40;;;;;;5083920;28;20048;-71
2023/05/13 03:41:52;;;;;;;9.52;4.93;;;13.50;70.40;;;;;;5077586;28;20075;-69
2023/05/13 03:44:18;;;;;;;8.38;5.57;;;13.50;70.50;;;;;;5073556;28;20028;-70
2023/05/13 03:46:43;;;;;;;6.72;5.13;;;13.50;70.80;;;;;;5078932;28;20031;-69
2023/05/13 03:49:09;;;;;;;6.65;5.45;;;13.50;70.80;;;;;;5078982;28;20097;-68
2023/05/13 03:51:34;;;;;;;6.55;5.35;;;13.50;70.80;;;;;;5084872;28;20051;-70
2023/05/13 03:54:01;;;;;;;8.10;5.38;;;13.50;70.90;;;;;;5088056;28;20046;-69
2023/05/13 03:56:27;;;;;;;7.50;5.95;;;13.50;71.00;;;;;;5085060;28;20040;-70
2023/05/13 03:58:52;;;;;;;7.15;5.57;;;13.40;71.20;;;;;;5080745;28;20024;-70
2023/05/13 04:01:18;;;;;;;7.93;5.80;;;13.40;71.40;;;;;;5070881;28;20032;-69
2023/05/13 04:03:45;;;;;;;7.47;5.63;;;13.40;71.40;;;;;;5078471;28;20032;-68
2023/05/13 04:06:11;;;;;;;6.88;6.07;;;13.40;71.50;;;;;;5086339;28;20031;-69
2023/05/13 04:08:36;;;;;;;7.43;5.82;;;13.40;71.70;;;;;;5076238;28;20036;-69
2023/05/13 04:11:02;;;;;;;7.20;5.57;;;13.30;71.70;;;;;;5072839;28;20111;-69
2023/05/13 04:13:27;;;;;;;6.03;5.43;;;13.30;71.80;;;;;;5072731;28;20025;-70
2023/05/13 04:15:54;;;;;;;8.20;6.00;;;13.30;72.00;;;;;;5075610;28;20020;-70
2023/05/13 04:18:20;;;;;;;8.45;6.50;;;13.30;72.10;;;;;;5084360;28;20483;-71
2023/05/13 04:20:45;;;;;;;7.55;5.97;;;13.30;72.20;;;;;;5119642;27;20391;-71
2023/05/13 04:23:11;;;;;;;6.47;5.78;;;13.30;72.20;;;;;;5082213;28;20025;-71
2023/05/13 04:25:36;;;;;;;6.70;6.00;;;13.40;72.30;;;;;;5083046;28;20387;-69
2023/05/13 04:28:02;;;;;;;6.72;5.57;;;13.30;72.20;;;;;;5087417;28;20032;-71
2023/05/13 04:30:28;;;;;;;8.13;6.10;;;13.30;72.40;;;;;;5084406;28;20030;-69
2023/05/13 04:32:53;;;;;;;8.75;6.78;;;13.30;72.60;;;;;;5072352;28;20074;-70
2023/05/13 04:35:19;;;;;;;7.95;6.60;;;13.30;72.90;;;;;;5069470;28;20074;-68
2023/05/13 04:37:44;;;;;;;7.80;6.82;;;13.20;72.90;;;;;;5071941;28;20024;-72
2023/05/13 04:40:10;;;;;;;7.88;6.50;;;13.20;73.10;;;;;;5081987;28;20462;-71
2023/05/13 04:42:36;;;;;;;7.57;6.78;;;13.20;73.20;;;;;;5089022;28;20101;-71
2023/05/13 04:45:01;;;;;;;8.57;6.35;;;13.20;73.30;;;;;;5073733;28;20028;-69
2023/05/13 04:47:27;;;;;;;9.07;7.28;;;13.20;73.50;;;;;;5088056;28;20020;-68
2023/05/13 04:49:53;;;;;;;7.70;6.90;;;13.20;73.60;;;;;;5079203;28;20016;-70
2023/05/13 04:52:19;;;;;;;8.93;7.07;;;13.10;73.70;;;;;;5076314;28;20024;-70
2023/05/13 04:54:44;;;;;;;7.55;6.75;;;13.10;73.90;;;;;;5079716;28;20031;-69
2023/05/13 04:57:10;;;;;;;8.85;6.68;;;13.10;74.10;;;;;;5085900;28;20016;-68
2023/05/13 04:59:35;;;;;;;7.47;6.40;;;13.10;74.20;;;;;;5071066;28;20506;-69
2023/05/13 05:02:01;;;;;;;8.73;6.82;;;13.10;74.20;;;;;;5071720;28;20033;-70
2023/05/13 05:04:27;;;;;;;9.07;7.10;;;13.10;74.30;;;;;;5078132;28;20078;-69
2023/05/13 05:06:52;;;;;;;8.80;6.93;;;13.10;74.40;;;;;;5074447;28;20113;-68
2023/05/13 05:09:18;;;;;;;9.70;6.53;;;13.20;74.40;;;;;;5073078;28;20546;-69
2023/05/13 05:11:44;;;;;;;7.18;6.47;;;13.20;74.40;;;;;;5088141;28;20047;-69
2023/05/13 05:14:10;;;;;;;7.55;6.28;;;13.20;74.30;;;;;;5085434;28;20020;-70
2023/05/13 05:16:35;;;;;;;9.07;6.93;;;13.30;74.30;;;;;;5077768;28;20025;-70
2023/05/13 05:19:01;;;;;;;7.53;6.72;;;13.30;74.30;;;;;;5076189;28;20020;-69
2023/05/13 05:21:26;;;;;;;8.45;6.72;;;13.90;74.40;;;;;;5087838;28;20516;-70
2023/05/13 05:23:52;;;;;;;8.15;6.50;;;14.70;72.40;;;;;;5078408;28;20087;-70
2023/05/13 05:26:18;;;;;;;7.65;6.30;;;15.60;69.90;;;;;;5086208;28;20101;-69
2023/05/13 05:28:44;;;;;;;9.40;7.05;;;16.40;67.20;;;;;;5080637;28;20027;-70
2023/05/13 05:31:09;;;;;;;8.18;6.70;;;16.30;66.00;;;;;;5071561;28;20429;-72
2023/05/13 05:33:36;;;;;;;9.23;7.07;;;16.30;66.30;;;;;;5077199;28;20016;-71
2023/05/13 05:36:01;;;;;;;9.63;6.88;;;16.70;65.10;;;;;;5079384;28;20032;-70
2023/05/13 05:38:27;;;;;;;7.43;6.50;;;16.30;64.90;;;;;;5092034;28;20055;-70
2023/05/13 05:40:52;;;;;;;7.50;6.18;;;15.90;65.90;;;;;;5076210;28;20024;-71
2023/05/13 05:43:18;;;;;;;7.80;5.50;;;16.00;67.00;;;;;;5070942;28;20510;-71
2023/05/13 05:45:44;;;;;;;6.82;5.45;;;16.90;65.70;;;;;;5079704;28;20032;-70
2023/05/13 05:48:10;;;;;;;7.55;5.65;;;17.90;63.30;;;;;;5080198;28;20379;-70
2023/05/13 05:50:35;;;;;;;7.55;6.13;;;18.80;60.90;;;;;;5075891;28;20035;-71
2023/05/13 05:53:01;;;;;;;7.13;6.05;;;19.40;58.90;;;;;;5082708;28;20151;-70
2023/05/13 05:55:27;;;;;;;7.43;5.53;;;19.80;57.70;;;;;;5071797;28;20024;-71
2023/05/13 05:57:55;;;;;;;6.82;5.97;;;20.10;56.50;;;;;;5071525;28;20020;-71
2023/05/13 06:00:20;;;;;;;7.90;5.43;;;20.50;55.70;;;;;;5078082;28;20709;-72
2023/05/13 06:02:47;;;;;;;7.43;6.38;;;20.70;55.10;;;;;;5090525;28;20028;-71
2023/05/13 06:05:13;;;;;;;8.07;6.00;;;21.00;54.10;;;;;;5073501;28;20474;-70
2023/05/13 06:07:39;;;;;;;7.53;6.03;;;21.10;53.70;;;;;;5071792;28;20037;-71
2023/05/13 06:10:05;;;;;;;7.07;5.30;;;21.10;53.30;;;;;;5074077;28;20402;-71
2023/05/13 06:12:31;;;;;;;5.93;5.32;;;21.50;53.60;;;;;;5070632;28;20529;-71
2023/05/13 06:14:57;;;;;;;6.85;5.85;;;21.30;52.90;;;;;;5069106;28;20112;-72
2023/05/13 06:17:23;;;;;;;5.82;5.03;;;20.60;53.50;;;;;;5070191;28;20111;-71
2023/05/13 06:19:48;;;;;;;8.25;5.95;;;19.80;55.80;;;;;;5070589;28;20016;-72
2023/05/13 06:22:14;;;;;;;6.10;5.10;;;19.70;55.80;;;;;;5070661;28;20077;-71
2023/05/13 06:24:41;;;;;;;7.60;5.32;;;19.10;57.40;;;;;;5077227;28;20028;-72
2023/05/13 06:27:07;;;;;;;7.32;6.10;;;19.60;57.30;;;;;;5070330;28;20399;-72
2023/05/13 06:29:32;;;;;;;6.57;5.65;;;20.20;56.20;;;;;;5069561;28;20032;-70
2023/05/13 06:31:58;;;;;;;6.72;5.78;;;20.50;55.50;;;;;;5068857;28;20021;-70
2023/05/13 06:34:24;;;;;;;6.15;5.18;;;20.50;55.30;;;;;;5069364;28;20496;-71
2023/05/13 06:36:50;;;;;;;7.20;5.20;;;20.60;55.50;;;;;;5069747;28;20107;-72
2023/05/13 06:39:15;;;;;;;8.85;5.40;;;20.60;55.80;;;;;;5069976;28;20108;-71
2023/05/13 06:41:41;;;;;;;6.93;5.63;;;20.50;56.00;;;;;;5069439;28;20028;-71
2023/05/13 06:44:07;;;;;;;6.85;5.07;;;20.40;56.00;;;;;;5069779;28;20028;-69
2023/05/13 06:46:32;;;;;;;7.85;5.30;;;20.10;56.30;;;;;;5069590;28;20032;-72
2023/05/13 06:48:58;;;;;;;6.13;4.93;;;20.10;57.50;;;;;;5070048;28;20028;-71
2023/05/13 06:51:26;;;;;;;7.97;5.85;;;20.10;57.10;;;;;;5069977;28;20036;-70
2023/05/13 06:53:52;;;;;;;8.52;5.70;;;19.90;56.80;;;;;;5069539;28;20749;-71
2023/05/13 06:56:18;;;;;;;6.60;5.80;;;19.60;57.10;;;;;;5069671;28;20126;-71
2023/05/13 06:58:44;;;;;;;7.55;5.40;;;19.40;57.40;;;;;;5070041;28;20363;-71
2023/05/13 07:01:09;;;;;;;6.60;5.57;;;19.30;57.80;;;;;;5069573;28;20081;-69
2023/05/13 07:03:36;;;;;;;6.38;5.20;;;19.30;57.70;;;;;;5068867;28;20029;-72
2023/05/13 07:06:03;;;;;;;5.93;4.85;;;19.40;57.90;;;;;;5067721;28;20016;-69
2023/05/13 07:08:28;;;;;;;5.93;5.32;;;19.60;57.90;;;;;;5085313;28;20039;-70
2023/05/13 07:10:54;;;;;;;8.38;4.88;;;19.80;57.50;;;;;;5087817;28;20028;-69
2023/05/13 07:13:20;;;;;;;6.88;5.30;;;19.60;57.60;;;;;;5086413;28;20028;-71
2023/05/13 07:15:46;;;;;;;6.93;5.18;;;19.10;58.00;;;;;;5082509;28;20012;-70
2023/05/13 07:18:11;;;;;;;5.80;4.97;;;18.80;58.90;;;;;;5079394;28;20384;-70
2023/05/13 07:20:37;;;;;;;6.22;5.00;;;19.00;59.40;;;;;;5077674;28;20032;-71
2023/05/13 07:23:02;;;;;;;6.22;4.45;;;19.20;59.30;;;;;;5077709;28;20036;-71
2023/05/13 07:25:28;;;;;;;9.95;5.10;;;19.30;59.20;;;;;;5069274;28;20030;-70
2023/05/13 07:27:54;;;;;;;5.35;4.43;;;19.40;59.00;;;;;;5069416;28;20068;-71
2023/05/13 07:30:19;;;;;;;6.22;4.93;;;19.40;58.90;;;;;;5069500;28;20032;-71
2023/05/13 07:32:45;;;;;;;6.78;4.75;;;19.50;58.90;;;;;;5069071;28;20506;-71
2023/05/13 07:35:11;;;;;;;5.80;4.20;;;19.50;58.40;;;;;;5068474;28;20509;-71
2023/05/13 07:37:36;;;;;;;5.20;4.40;;;19.60;58.50;;;;;;5068754;28;20033;-72
2023/05/13 07:40:04;;;;;;;4.95;4.03;;;19.80;58.50;;;;;;5068691;28;20035;-70
2023/05/13 07:42:29;;;;;;;5.65;4.10;;;20.00;58.50;;;;;;5069079;28;20380;-69
2023/05/13 07:44:55;;;;;;;5.28;3.88;;;20.20;58.20;;;;;;5069306;28;20023;-72
2023/05/13 07:47:20;;;;;;;4.88;3.70;;;20.50;57.20;;;;;;5068544;28;20033;-71
2023/05/13 07:49:46;;;;;;;5.97;3.88;;;20.50;56.60;;;;;;5069444;28;20083;-71
2023/05/13 07:52:11;;;;;;;6.38;4.10;;;20.60;56.40;;;;;;5069089;28;20029;-71
2023/05/13 07:54:37;;;;;;;5.25;3.65;;;20.80;56.00;;;;;;5069384;28;20050;-71
2023/05/13 07:57:03;;;;;;;4.70;3.90;;;20.80;55.80;;;;;;5068835;28;20025;-71
2023/05/13 07:59:28;;;;;;;4.65;3.65;;;20.90;55.80;;;;;;5069102;28;20073;-71
2023/05/13 08:01:54;;;;;;;3.97;3.53;;;21.10;55.50;;;;;;5068408;28;20107;-70
2023/05/13 08:04:20;;;;;;;6.10;3.88;;;21.10;54.80;;;;;;5068487;28;20032;-70
2023/05/13 08:06:45;;;;;;;3.90;3.47;;;21.10;53.80;;;;;;5068596;28;20043;-70
2023/05/13 08:09:11;;;;;;;7.03;3.70;;;21.10;53.80;;;;;;5068907;28;20039;-70
2023/05/13 08:11:37;;;;;;;5.15;3.95;;;21.10;54.10;;;;;;5068067;28;20030;-70
2023/05/13 08:14:04;;;;;;;5.13;3.70;;;21.30;53.80;;;;;;5068484;28;20096;-70
2023/05/13 08:16:29;;;;;;;5.43;3.40;;;21.40;53.50;;;;;;5076940;28;20017;-72
2023/05/13 08:18:56;;;;;;;7.13;3.60;;;21.40;53.40;;;;;;5072100;28;20030;-70
2023/05/13 08:21:22;;;;;;;4.15;3.10;;;21.60;53.20;;;;;;5082878;28;20036;-71
2023/05/13 08:23:49;;;;;;;5.28;3.38;;;21.70;52.90;;;;;;5076691;28;20036;-69
2023/05/13 08:26:15;;;;;;;5.28;3.65;;;21.90;52.80;;;;;;5072487;28;20020;-71
2023/05/13 08:28:41;;;;;;;5.75;3.42;;;21.90;51.80;;;;;;5072444;28;20398;-71
2023/05/13 08:31:06;;;;;;;5.45;3.00;;;22.00;51.70;;;;;;5071892;28;20105;-71
2023/05/13 08:33:33;;;;;;;4.35;3.10;;;22.00;51.20;;;;;;5071849;28;20035;-69
2023/05/13 08:35:59;;;;;;;5.38;3.33;;;22.00;51.30;;;;;;5072068;28;20020;-70
2023/05/13 08:38:25;;;;;;;3.88;3.03;;;22.00;50.90;;;;;;5071563;28;20052;-70
2023/05/13 08:40:51;;;;;;;5.68;3.53;;;22.00;50.80;;;;;;5072439;28;20486;-68
2023/05/13 08:43:19;;;;;;;6.50;3.22;;;21.90;50.20;;;;;;5070884;28;20024;-69
2023/05/13 08:45:46;;;;;;;5.63;3.40;;;22.00;49.90;;;;;;5071210;28;20078;-69
2023/05/13 08:48:14;;;;;;;3.55;3.00;;;22.00;50.00;;;;;;5074053;28;20031;-70
2023/05/13 08:50:40;;;;;;;3.38;2.90;;;22.10;49.20;;;;;;5085084;28;20086;-70
2023/05/13 08:53:06;;;;;;;3.38;2.90;;;22.10;49.90;;;;;;5072385;28;20029;-70
2023/05/13 08:55:32;;;;;;;3.75;2.60;;;22.20;49.30;;;;;;5071800;28;20021;-70
2023/05/13 08:57:58;;;;;;;4.68;2.85;;;22.40;49.40;;;;;;5072412;28;20356;-69
2023/05/13 09:00:24;;;;;;;4.28;3.03;;;22.50;49.40;;;;;;5071327;28;20174;-68
2023/05/13 09:02:50;;;;;;;4.90;2.90;;;22.60;48.70;;;;;;5071261;28;20035;-69
2023/05/13 09:05:16;;;;;;;4.10;2.88;;;22.70;48.40;;;;;;5071046;28;20043;-68
2023/05/13 09:07:43;;;;;;;2.97;2.63;;;22.80;47.80;;;;;;5071713;28;20036;-68
2023/05/13 09:10:09;;;;;;;5.22;2.53;;;22.90;47.60;;;;;;5067897;28;20125;-69
2023/05/13 09:12:54;;;;;;;4.60;2.70;;;23.00;47.50;;;;;;5069469;28;20020;-69
2023/05/13 09:15:22;;;;;;;3.13;2.30;;;23.10;47.50;;;;;;5066781;28;20024;-68
2023/05/13 09:17:55;;;;;;;4.32;2.72;;;23.30;47.30;;;;;;5067346;28;20313;-69
2023/05/13 09:20:21;;;;;;;3.70;2.88;;;23.30;46.50;;;;;;5072646;28;20032;-69
2023/05/13 09:22:52;;;;;;;8.27;5.38;;;23.40;46.60;;;;;;5074266;28;20025;-71
2023/05/13 09:25:19;;;;;;;8.10;5.68;;;23.40;46.20;;;;;;5075722;28;20120;-69
2023/05/13 09:27:51;;;;;;;6.03;3.90;;;23.50;46.50;;;;;;5073791;28;20383;-69
2023/05/13 09:30:19;;;;;;;3.97;2.90;;;23.50;46.60;;;;;;5071118;28;20044;-69
2023/05/13 09:33:09;;;;;;;5.43;3.00;;;23.50;46.20;;;;;;5071267;28;20073;-69
2023/05/13 09:35:38;;;;;;;5.40;3.00;;;23.40;46.20;;;;;;5065288;28;20057;-69
2023/05/13 09:38:17;;;;;;;3.65;3.00;;;23.40;46.00;;;;;;5067162;28;20081;-70
2023/05/13 09:40:53;;;;;;;4.70;2.97;;;23.40;46.10;;;;;;5065451;28;20036;-69
2023/05/13 09:43:24;;;;;;;5.93;3.30;;;23.40;46.10;;;;;;5069218;28;20024;-70
2023/05/13 09:46:01;;;;;;;5.20;3.08;;;23.40;44.80;;;;;;5072066;28;20063;-70
2023/05/13 09:48:28;;;;;;;3.97;2.63;;;23.30;45.20;;;;;;5071258;28;20111;-69
2023/05/13 09:50:56;;;;;;;3.80;2.97;;;23.40;45.90;;;;;;5067873;28;20207;-70
2023/05/13 09:53:23;;;;;;;3.75;2.92;;;23.50;45.50;;;;;;5066659;28;20035;-70
2023/05/13 09:55:50;;;;;;;4.18;2.97;;;23.70;45.40;;;;;;5070014;28;20017;-69
2023/05/13 09:58:17;;;;;;;4.35;2.90;;;23.80;45.10;;;;;;5069946;28;20031;-69
2023/05/13 10:00:43;;;;;;;6.10;2.80;;;23.80;45.00;;;;;;5070602;28;20035;-69
2023/05/13 10:03:10;;;;;;;5.68;3.40;;;23.80;44.70;;;;;;5079336;28;20017;-68
2023/05/13 10:05:37;;;;;;;3.50;2.97;;;23.90;44.40;;;;;;5067812;28;20111;-69
2023/05/13 10:08:03;;;;;;;4.72;2.70;;;23.90;44.70;;;;;;5072505;28;20032;-69
2023/05/13 10:10:31;;;;;;;6.15;3.15;;;23.90;44.10;;;;;;5074855;28;20029;-67
2023/05/13 10:13:04;;;;;;;4.07;2.75;;;23.90;43.90;;;;;;5068638;28;20036;-67
2023/05/13 10:15:30;;;;;;;4.57;2.40;;;23.90;43.80;;;;;;5070721;28;20016;-69
2023/05/13 10:18:00;;;;;;;8.00;2.90;;;24.00;43.70;;;;;;5068983;28;20021;-69
2023/05/13 10:20:26;;;;;;;6.43;3.22;;;23.90;43.10;;;;;;5070529;28;20515;-68
2023/05/13 10:22:52;;;;;;;4.05;3.20;;;23.90;43.30;;;;;;5070261;28;20051;-69
2023/05/13 10:25:18;;;;;;;5.18;2.90;;;23.90;43.20;;;;;;5070755;28;20604;-70
2023/05/13 10:27:44;;;;;;;4.50;3.15;;;23.90;43.60;;;;;;5069460;28;20032;-69
2023/05/13 10:30:10;;;;;;;4.57;2.83;;;24.00;43.70;;;;;;5070195;28;20020;-69
2023/05/13 10:32:38;;;;;;;3.70;2.50;;;24.00;43.30;;;;;;5068812;28;20090;-69
2023/05/13 10:35:06;;;;;;;5.00;3.13;;;24.20;43.40;;;;;;5069073;28;20402;-68
2023/05/13 10:37:41;;;;;;;3.53;2.55;;;24.20;41.90;;;;;;5069743;28;20020;-70
2023/05/13 10:40:25;;;;;;;7.43;3.30;;;24.10;42.70;;;;;;5070021;28;20098;-67
2023/05/13 10:43:17;;;;;;;3.97;3.05;;;24.00;41.60;;;;;;5067856;28;20031;-67
2023/05/13 10:45:45;;;;;;;5.63;2.85;;;24.00;41.10;;;;;;5072315;28;20428;-70
2023/05/13 10:48:12;;;;;;;3.33;2.63;;;23.90;41.60;;;;;;5073316;28;20016;-68
2023/05/13 10:50:37;;;;;;;5.32;3.05;;;23.90;42.20;;;;;;5069774;28;20031;-69
2023/05/13 10:53:11;;;;;;;3.88;2.80;;;24.00;42.00;;;;;;5070007;28;20096;-71
2023/05/13 10:55:44;;;;;;;4.65;2.67;;;24.00;42.50;;;;;;5072462;28;20051;-69
2023/05/13 10:58:13;;;;;;;6.57;2.92;;;24.20;41.70;;;;;;5076416;28;20051;-70
2023/05/13 11:00:40;;;;;;;4.45;2.40;;;24.20;41.20;;;;;;5072075;28;20026;-69
2023/05/13 11:03:09;;;;;;;4.18;2.90;;;24.20;41.20;;;;;;5079744;28;20380;-70
2023/05/13 11:05:37;;;;;;;4.47;2.35;;;24.40;41.40;;;;;;5071668;28;20462;-70
2023/05/13 11:08:02;;;;;;;3.75;3.20;;;24.60;41.70;;;;;;5084200;28;20024;-70
2023/05/13 11:10:30;;;;;;;5.68;3.10;;;24.50;39.20;;;;;;5069808;28;20033;-70
2023/05/13 11:13:13;;;;;;;3.10;2.80;;;24.30;39.50;;;;;;5069805;28;20013;-69
2023/05/13 11:15:49;;;;;;;4.35;3.22;;;24.30;40.80;;;;;;5069984;28;20025;-68
2023/05/13 11:18:15;;;;;;;3.83;3.30;;;24.10;40.30;;;;;;5070137;28;20051;-70
2023/05/13 11:20:45;;;;;;;4.15;2.78;;;24.00;40.50;;;;;;5070335;28;20024;-70
2023/05/13 11:23:19;;;;;;;3.40;2.83;;;24.10;41.20;;;;;;5071019;28;20024;-70
2023/05/13 11:25:45;;;;;;;6.68;2.97;;;24.30;40.90;;;;;;5070005;28;20052;-70
2023/05/13 11:28:17;;;;;;;4.70;2.60;;;24.40;40.90;;;;;;5072266;28;20028;-69
2023/05/13 11:30:54;;;;;;;4.55;2.60;;;24.60;40.20;;;;;;5074512;28;20028;-70
2023/05/13 11:33:20;;;;;;;4.57;2.95;;;24.70;39.50;;;;;;5085214;28;20021;-70
2023/05/13 11:35:54;;;;;;;3.53;2.80;;;24.70;39.90;;;;;;5072255;28;20099;-70
2023/05/13 11:38:24;;;;;;;4.05;2.40;;;24.60;40.00;;;;;;5080183;28;20024;-69
2023/05/13 11:40:51;;;;;;;5.55;3.00;;;24.50;39.80;;;;;;5069786;28;20502;-70
2023/05/13 11:43:20;;;;;;;5.35;3.10;;;24.30;40.10;;;;;;5069236;28;20115;-69
2023/05/13 11:45:46;;;;;;;4.63;2.90;;;24.00;40.70;;;;;;5069927;28;20020;-70
2023/05/13 11:48:23;;;;;;;4.13;3.10;;;24.00;40.80;;;;;;5069291;28;20032;-70
2023/05/13 11:50:50;;;;;;;4.38;2.90;;;24.30;40.60;;;;;;5055808;28;20503;-69
2023/05/13 11:53:21;;;;;;;4.20;3.00;;;24.60;40.00;;;;;;5073125;28;20051;-70
2023/05/13 11:55:47;;;;;;;2.95;2.40;;;24.70;38.50;;;;;;5073334;28;20662;-68
2023/05/13 11:58:14;;;;;;;4.13;2.53;;;24.70;38.40;;;;;;5073383;28;20024;-68
2023/05/13 12:00:39;;;;;;;3.92;3.03;;;24.80;38.70;;;;;;5074047;28;20020;-69
2023/05/13 12:03:10;;;;;;;6.18;2.75;;;24.80;37.00;;;;;;5077238;28;20033;-69
2023/05/13 12:05:36;;;;;;;3.70;2.42;;;24.60;36.70;;;;;;5073224;28;20035;-69
2023/05/13 12:08:02;;;;;;;5.20;2.38;;;24.90;37.70;;;;;;5069288;28;20025;-69
2023/05/13 12:10:27;;;;;;;4.35;2.50;;;25.20;37.80;;;;;;5072399;28;20119;-68
2023/05/13 12:12:53;;;;;;;4.75;2.72;;;25.40;38.00;;;;;;5072912;28;20017;-69
2023/05/13 12:15:20;;;;;;;4.18;3.05;;;25.40;37.70;;;;;;5072521;28;20024;-68
2023/05/13 12:17:48;;;;;;;3.53;2.83;;;25.10;36.50;;;;;;5072770;28;20043;-69
2023/05/13 12:20:15;;;;;;;3.00;2.47;;;24.90;36.70;;;;;;5072577;28;20021;-69
2023/05/13 12:22:43;;;;;;;4.50;2.50;;;24.90;37.30;;;;;;5087880;28;20474;-69
2023/05/13 12:25:34;;;;;;;4.20;2.60;;;24.90;37.40;;;;;;5072414;28;20028;-70
2023/05/13 12:28:12;;;;;;;3.78;2.60;;;24.70;37.10;;;;;;5072722;28;20478;-70
2023/05/13 12:30:49;;;;;;;7.85;2.50;;;24.60;37.10;;;;;;5070699;28;20039;-70
2023/05/13 12:33:16;;;;;;;4.13;2.67;;;25.00;37.40;;;;;;5072730;28;20082;-69
2023/05/13 12:35:43;;;;;;;4.60;2.85;;;25.30;36.10;;;;;;5072503;28;20497;-69
2023/05/13 12:38:15;;;;;;;6.63;3.60;;;25.30;35.20;;;;;;5072628;28;20056;-69
2023/05/13 12:40:40;;;;;;;4.07;2.50;;;25.20;35.50;;;;;;5072140;28;20360;-70
2023/05/13 12:43:07;;;;;;;8.38;2.50;;;25.60;35.70;;;;;;5073405;28;20017;-68
2023/05/13 12:45:34;;;;;;;3.85;2.70;;;25.80;35.50;;;;;;5072041;28;20108;-70
2023/05/13 12:48:00;;;;;;;3.72;2.10;;;26.00;35.20;;;;;;5072199;28;20029;-68